createdAt,value
2018-08-30T00:02:39.280Z,15.90
2018-08-30T00:06:41.929Z,15.90
2018-08-30T00:10:44.533Z,15.90
2018-08-30T00:14:47.185Z,15.90
2018-08-30T00:18:50.018Z,15.70
2018-08-30T00:22:52.810Z,15.70
2018-08-30T00:26:55.494Z,15.70
2018-08-30T00:30:58.146Z,15.70
2018-08-30T00:35:00.809Z,15.60
2018-08-30T00:39:04.700Z,15.60
2018-08-30T00:43:07.381Z,15.60
2018-08-30T00:47:14.510Z,15.50
2018-08-30T00:51:17.184Z,15.50
2018-08-30T00:55:19.820Z,15.40
2018-08-30T00:59:22.462Z,15.20
2018-08-30T01:03:25.100Z,15.20
2018-08-30T01:07:27.895Z,15.20
2018-08-30T01:11:30.605Z,15.10
2018-08-30T01:15:33.314Z,15.10
2018-08-30T01:19:35.965Z,15.00
2018-08-30T01:23:38.672Z,15.00
2018-08-30T01:27:41.393Z,14.90
2018-08-30T01:31:44.070Z,14.80
2018-08-30T01:35:46.772Z,14.80
2018-08-30T01:39:49.513Z,14.80
2018-08-30T01:43:52.135Z,14.80
2018-08-30T01:47:54.790Z,14.80
2018-08-30T01:51:57.431Z,14.80
2018-08-30T01:56:00.068Z,14.80
2018-08-30T02:00:02.730Z,14.80
2018-08-30T02:04:05.428Z,14.70
2018-08-30T02:08:08.029Z,14.70
2018-08-30T02:12:10.650Z,14.70
2018-08-30T02:16:13.386Z,14.80
2018-08-30T02:20:16.053Z,14.80
2018-08-30T02:24:18.815Z,14.80
2018-08-30T02:28:21.504Z,14.80
2018-08-30T02:32:24.271Z,14.80
2018-08-30T02:36:26.911Z,14.90
2018-08-30T02:40:29.637Z,14.90
2018-08-30T02:44:32.279Z,14.90
2018-08-30T02:48:34.959Z,14.90
2018-08-30T02:52:37.553Z,14.90
2018-08-30T02:56:40.380Z,14.90
2018-08-30T03:00:43.064Z,14.90
2018-08-30T03:04:45.858Z,14.90
2018-08-30T03:08:48.470Z,14.90
2018-08-30T03:12:51.056Z,14.90
2018-08-30T03:16:53.843Z,14.90
2018-08-30T03:20:56.476Z,14.80
2018-08-30T03:24:59.221Z,14.90
2018-08-30T03:29:01.823Z,14.80
2018-08-30T03:33:04.769Z,14.90
2018-08-30T03:37:07.329Z,14.90
2018-08-30T03:41:09.923Z,14.90
2018-08-30T03:45:12.526Z,14.90
2018-08-30T03:49:15.204Z,14.90
2018-08-30T03:53:17.769Z,14.80
2018-08-30T03:57:20.363Z,14.90
2018-08-30T04:01:23.133Z,14.90
2018-08-30T04:05:25.787Z,14.90
2018-08-30T04:09:28.706Z,14.90
2018-08-30T04:13:31.398Z,15.00
2018-08-30T04:17:34.196Z,14.90
2018-08-30T04:21:37.240Z,14.90
2018-08-30T04:25:39.853Z,14.90
2018-08-30T04:29:42.431Z,15.00
2018-08-30T04:33:45.059Z,15.00
2018-08-30T04:37:47.702Z,15.00
2018-08-30T04:41:50.369Z,15.00
2018-08-30T04:45:52.923Z,15.00
2018-08-30T04:49:55.566Z,15.00
2018-08-30T04:53:58.195Z,15.00
2018-08-30T04:58:00.775Z,14.90
2018-08-30T05:02:03.729Z,15.00
2018-08-30T05:06:06.330Z,15.00
2018-08-30T05:10:09.158Z,15.00
2018-08-30T05:14:11.787Z,15.00
2018-08-30T05:18:15.133Z,15.00
2018-08-30T05:22:17.795Z,15.00
2018-08-30T05:26:20.530Z,15.10
2018-08-30T05:30:23.167Z,15.20
2018-08-30T05:34:25.774Z,15.10
2018-08-30T05:38:28.752Z,15.10
2018-08-30T05:42:31.495Z,15.00
2018-08-30T05:46:34.237Z,15.20
2018-08-30T05:50:36.880Z,15.20
2018-08-30T05:54:39.622Z,15.10
2018-08-30T05:58:42.280Z,15.10
2018-08-30T06:02:45.063Z,15.10
2018-08-30T06:06:47.707Z,15.20
2018-08-30T06:10:51.520Z,15.20
2018-08-30T06:14:54.690Z,15.20
2018-08-30T06:18:57.411Z,15.20
2018-08-30T06:23:00.205Z,15.30
2018-08-30T06:27:02.968Z,15.30
2018-08-30T06:31:05.802Z,15.30
2018-08-30T06:35:08.637Z,15.40
2018-08-30T06:39:11.350Z,15.40
2018-08-30T06:43:14.009Z,15.40
2018-08-30T06:47:16.795Z,15.50
2018-08-30T06:51:21.190Z,15.50
2018-08-30T06:55:23.873Z,15.50
2018-08-30T06:59:26.473Z,15.60
2018-08-30T07:03:29.123Z,15.70
2018-08-30T07:07:31.739Z,15.80
2018-08-30T07:11:35.592Z,15.80
2018-08-30T07:15:38.549Z,15.80
2018-08-30T07:19:41.286Z,15.70
2018-08-30T07:23:43.991Z,15.70
2018-08-30T07:27:46.969Z,15.80
2018-08-30T07:31:49.762Z,16.00
2018-08-30T07:35:52.403Z,16.20
2018-08-30T07:39:55.086Z,16.40
2018-08-30T07:43:57.880Z,16.40
2018-08-30T07:48:00.458Z,16.80
2018-08-30T07:52:03.166Z,17.00
2018-08-30T07:56:06.107Z,17.20
2018-08-30T08:00:08.807Z,17.50
2018-08-30T08:04:11.513Z,17.60
2018-08-30T08:08:14.418Z,18.00
2018-08-30T08:12:17.019Z,18.10
2018-08-30T08:16:19.798Z,18.00
2018-08-30T08:20:22.517Z,18.30
2018-08-30T08:24:25.235Z,18.00
2018-08-30T08:28:27.876Z,18.20
2018-08-30T08:32:30.532Z,18.30
2018-08-30T08:36:33.224Z,18.40
2018-08-30T08:40:35.844Z,18.70
2018-08-30T08:44:38.577Z,18.60
2018-08-30T08:48:41.348Z,18.90
2018-08-30T08:52:44.035Z,19.20
2018-08-30T08:56:46.694Z,19.30
2018-08-30T09:00:49.471Z,19.60
2018-08-30T09:04:52.088Z,20.00
2018-08-30T09:08:54.690Z,20.40
2018-08-30T09:12:57.364Z,20.20
2018-08-30T09:17:00.065Z,20.50
2018-08-30T09:21:02.781Z,20.70
2018-08-30T09:25:05.481Z,20.60
2018-08-30T09:29:08.123Z,20.50
2018-08-30T09:33:10.851Z,20.80
2018-08-30T09:37:14.319Z,20.70
2018-08-30T09:41:16.947Z,20.50
2018-08-30T09:45:19.567Z,20.10
2018-08-30T09:49:22.201Z,20.10
2018-08-30T09:53:24.829Z,20.20
2018-08-30T09:57:27.553Z,20.20
2018-08-30T10:01:35.901Z,19.80
2018-08-30T10:05:38.490Z,20.20
2018-08-30T10:09:41.281Z,20.20
2018-08-30T10:13:44.005Z,20.60
2018-08-30T10:17:46.839Z,21.20
2018-08-30T10:21:50.611Z,21.20
2018-08-30T10:25:53.348Z,21.70
2018-08-30T10:29:56.074Z,22.10
2018-08-30T10:33:58.744Z,21.90
2018-08-30T10:38:01.396Z,22.00
2018-08-30T10:42:03.973Z,21.90
2018-08-30T10:46:06.676Z,22.20
2018-08-30T10:50:09.336Z,22.10
2018-08-30T10:54:12.067Z,22.10
2018-08-30T10:58:14.746Z,22.10
2018-08-30T11:02:17.859Z,22.20
2018-08-30T11:06:20.953Z,22.20
2018-08-30T11:10:23.617Z,22.50
2018-08-30T11:14:26.440Z,22.80
2018-08-30T11:18:29.160Z,22.90
2018-08-30T11:22:31.973Z,22.50
2018-08-30T11:26:34.662Z,22.20
2018-08-30T11:30:37.298Z,22.40
2018-08-30T11:34:40.057Z,22.80
2018-08-30T11:38:42.809Z,22.90
2018-08-30T11:42:45.529Z,22.20
2018-08-30T11:46:48.188Z,22.20
2018-08-30T11:50:52.917Z,22.20
2018-08-30T11:54:55.682Z,22.00
2018-08-30T11:58:58.293Z,21.50
2018-08-30T12:03:01.013Z,21.40
2018-08-30T12:07:03.722Z,21.30
2018-08-30T12:11:06.810Z,21.20
2018-08-30T12:15:09.308Z,21.50
2018-08-30T12:19:11.970Z,21.70
2018-08-30T12:23:14.843Z,22.20
2018-08-30T12:27:17.627Z,22.20
2018-08-30T12:31:20.808Z,21.80
2018-08-30T12:35:23.739Z,21.90
2018-08-30T12:39:27.281Z,22.30
2018-08-30T12:43:30.676Z,22.30
2018-08-30T12:47:34.164Z,22.00
2018-08-30T12:51:38.271Z,21.70
2018-08-30T12:55:41.814Z,21.60
2018-08-30T12:59:44.517Z,21.30
2018-08-30T13:03:47.253Z,21.10
2018-08-30T13:07:50.022Z,19.90
2018-08-30T13:11:52.930Z,19.50
2018-08-30T13:15:55.352Z,18.80
2018-08-30T13:19:58.174Z,18.60
2018-08-30T13:24:01.079Z,18.10
2018-08-30T13:28:03.774Z,17.90
2018-08-30T13:32:06.438Z,17.90
2018-08-30T13:36:09.652Z,18.00
2018-08-30T13:40:12.625Z,18.00
2018-08-30T13:44:15.290Z,18.10
2018-08-30T13:48:19.374Z,18.00
2018-08-30T13:52:28.888Z,18.00
2018-08-30T13:56:31.857Z,18.00
2018-08-30T14:00:35.002Z,17.90
2018-08-30T14:04:37.441Z,18.10
2018-08-30T14:08:41.125Z,18.40
2018-08-30T14:12:44.539Z,19.00
2018-08-30T14:16:46.716Z,19.10
2018-08-30T14:20:49.779Z,18.70
2018-08-30T14:24:52.647Z,18.50
2018-08-30T14:28:55.271Z,17.90
2018-08-30T14:32:58.291Z,17.70
2018-08-30T14:37:01.013Z,17.40
2018-08-30T14:41:03.865Z,17.20
2018-08-30T14:45:06.375Z,17.40
2018-08-30T14:49:09.020Z,17.50
2018-08-30T14:53:11.692Z,17.50
2018-08-30T14:57:14.456Z,17.60
2018-08-30T15:01:16.991Z,17.60
2018-08-30T15:05:19.844Z,17.60
2018-08-30T15:09:22.647Z,18.00
2018-08-30T15:13:25.555Z,18.40
2018-08-30T15:17:28.566Z,18.60
2018-08-30T15:21:31.186Z,18.40
2018-08-30T15:25:33.952Z,18.50
2018-08-30T15:29:36.692Z,18.70
2018-08-30T15:33:39.464Z,18.70
2018-08-30T15:37:42.246Z,18.50
2018-08-30T15:41:45.255Z,18.00
2018-08-30T15:45:49.363Z,17.90
2018-08-30T15:49:52.532Z,17.70
2018-08-30T15:53:55.829Z,17.70
2018-08-30T15:57:59.077Z,17.70
2018-08-30T16:02:02.415Z,17.60
2018-08-30T16:06:06.511Z,17.50
2018-08-30T16:10:09.679Z,17.60
2018-08-30T16:14:12.361Z,17.60
2018-08-30T16:18:15.059Z,17.60
2018-08-30T16:22:17.844Z,17.50
2018-08-30T16:26:20.598Z,17.40
2018-08-30T16:30:23.726Z,17.50
2018-08-30T16:34:26.388Z,17.50
2018-08-30T16:38:29.010Z,17.40
2018-08-30T16:42:31.657Z,17.50
2018-08-30T16:46:34.652Z,17.50
2018-08-30T16:50:37.282Z,17.60
2018-08-30T16:54:40.106Z,17.60
2018-08-30T16:58:42.837Z,17.60
2018-08-30T17:02:45.652Z,17.70
2018-08-30T17:06:48.584Z,17.60
2018-08-30T17:10:52.002Z,17.60
2018-08-30T17:14:54.536Z,17.40
2018-08-30T17:19:08.897Z,17.50
2018-08-30T17:23:11.849Z,17.50
2018-08-30T17:31:24.239Z,17.50
2018-08-30T17:35:27.089Z,17.40
2018-08-30T17:39:29.861Z,17.40
2018-08-30T17:43:32.729Z,17.20
2018-08-30T17:47:35.445Z,17.20
2018-08-30T17:51:38.207Z,17.10
2018-08-30T17:55:40.907Z,17.10
2018-08-30T17:59:43.726Z,17.10
2018-08-30T18:03:53.993Z,17.00
2018-08-30T18:07:57.252Z,17.00
2018-08-30T18:12:02.048Z,16.80
2018-08-30T18:16:04.743Z,16.80
2018-08-30T18:20:07.677Z,16.80
2018-08-30T18:24:10.914Z,16.80
2018-08-30T18:28:13.817Z,16.80
2018-08-30T18:32:17.315Z,16.80
2018-08-30T18:36:20.683Z,16.80
2018-08-30T18:40:23.710Z,16.70
2018-08-30T18:44:26.753Z,16.70
2018-08-30T18:48:29.766Z,16.60
2018-08-30T18:52:33.387Z,16.60
2018-08-30T18:56:36.565Z,16.60
2018-08-30T19:00:39.794Z,16.50
2018-08-30T19:04:46.668Z,16.50
2018-08-30T19:08:50.652Z,16.50
2018-08-30T19:12:53.625Z,16.40
2018-08-30T19:17:02.638Z,16.40
2018-08-30T19:21:05.701Z,16.40
2018-08-30T19:25:14.393Z,16.30
2018-08-30T19:29:18.270Z,16.30
2018-08-30T19:33:21.329Z,16.30
2018-08-30T19:37:24.205Z,16.30
2018-08-30T19:41:33.693Z,16.20
2018-08-30T19:45:40.356Z,16.10
2018-08-30T19:49:43.906Z,16.10
2018-08-30T19:53:46.814Z,16.00
2018-08-30T19:57:49.675Z,16.00
2018-08-30T20:01:52.922Z,15.90
2018-08-30T20:05:56.885Z,15.90
2018-08-30T20:10:00.428Z,15.80
2018-08-30T20:14:03.731Z,15.70
2018-08-30T20:18:06.868Z,15.60
2018-08-30T20:22:11.507Z,15.60
2018-08-30T20:26:14.392Z,15.50
2018-08-30T20:30:17.361Z,15.40
2018-08-30T20:34:20.978Z,15.30
2018-08-30T20:38:23.858Z,15.30
2018-08-30T20:42:26.633Z,15.20
2018-08-30T20:46:29.463Z,15.10
2018-08-30T20:50:32.248Z,15.00
2018-08-30T20:54:35.050Z,14.90
2018-08-30T20:58:37.826Z,14.90
2018-08-30T21:02:40.573Z,14.90
2018-08-30T21:06:44.237Z,14.70
2018-08-30T21:10:46.928Z,14.70
2018-08-30T21:14:49.921Z,14.60
2018-08-30T21:18:52.762Z,14.60
2018-08-30T21:22:55.691Z,14.40
2018-08-30T21:26:58.590Z,14.40
2018-08-30T21:31:01.668Z,14.30
2018-08-30T21:35:06.656Z,14.30
2018-08-30T21:39:10.263Z,14.20
2018-08-30T21:43:13.013Z,14.10
2018-08-30T21:47:15.900Z,14.00
2018-08-30T21:51:18.819Z,14.00
2018-08-30T21:55:22.764Z,13.90
2018-08-30T21:59:25.619Z,13.80
2018-08-30T22:03:28.261Z,13.70
2018-08-30T22:07:31.548Z,13.60
2018-08-30T22:11:34.339Z,13.60
2018-08-30T22:15:36.962Z,13.60
2018-08-30T22:19:39.630Z,13.50
2018-08-30T22:23:42.400Z,13.50
2018-08-30T22:27:45.026Z,13.40
2018-08-30T22:31:47.641Z,13.40
2018-08-30T22:35:51.119Z,13.40
2018-08-30T22:39:53.757Z,13.40
2018-08-30T22:43:56.631Z,13.40
2018-08-30T22:47:59.262Z,13.40
2018-08-30T22:52:02.045Z,13.40
2018-08-30T22:56:05.050Z,13.40
2018-08-30T23:00:07.704Z,13.30
2018-08-30T23:04:10.455Z,13.20
2018-08-30T23:08:13.246Z,13.10
2018-08-30T23:12:16.041Z,13.10
2018-08-30T23:16:18.884Z,13.00
2018-08-30T23:20:21.632Z,13.00
2018-08-30T23:24:24.414Z,12.90
2018-08-30T23:28:27.051Z,12.90
2018-08-30T23:32:29.766Z,12.80
2018-08-30T23:36:32.480Z,12.80
2018-08-30T23:40:37.122Z,12.80
2018-08-30T23:44:41.234Z,12.80
2018-08-30T23:48:44.329Z,12.70
2018-08-30T23:52:48.854Z,12.60
2018-08-30T23:56:53.594Z,12.50
